Time;durP1;ratioP1;P1;durP2;ratioP2;P2;SDS_P1;SDS_P2;PMS_P1;PMS_P2;Temp;Humidity;BMP_temperature;BMP_pressure;BME280_temperature;BME280_humidity;BME280_pressure;Samples;Min_cycle;Max_cycle;Signal;HPM_P1;HPM_P2
2022/05/05 00:01:02;;;;;;;6.10;3.40;;;;;;;14.16;40.04;100150.94;4953307;29;20059;-58
2022/05/05 00:03:29;;;;;;;10.95;3.60;;;;;;;14.13;40.14;100155.63;4954837;29;20050;-59
2022/05/05 00:05:55;;;;;;;8.88;3.83;;;;;;;14.10;40.12;100155.81;4954697;29;20728;-60
2022/05/05 00:08:22;;;;;;;12.13;3.50;;;;;;;14.07;40.42;100167.44;4954703;29;20055;-56
2022/05/05 00:16:18;;;;;;;5.95;3.08;;;;;;;14.03;40.37;100158.00;4954610;29;20054;-61
2022/05/05 00:18:45;;;;;;;8.32;3.75;;;;;;;14.02;40.52;100157.16;4954399;29;20092;-60
2022/05/05 00:21:12;;;;;;;9.77;3.42;;;;;;;14.02;40.66;100164.25;4954214;29;20055;-59
2022/05/05 00:23:38;;;;;;;10.18;3.60;;;;;;;14.02;40.57;100156.31;4953521;29;20058;-57
2022/05/05 00:26:05;;;;;;;7.38;3.83;;;;;;;14.02;40.67;100158.97;4954363;29;20103;-60
2022/05/05 00:28:31;;;;;;;9.25;3.67;;;;;;;14.00;40.63;100159.06;4954559;29;20572;-61
2022/05/05 00:30:58;;;;;;;7.47;3.72;;;;;;;13.98;40.57;100157.47;4936914;29;20441;-59
2022/05/05 00:33:25;;;;;;;13.90;4.20;;;;;;;13.96;40.78;100162.84;4954289;29;20047;-58
2022/05/05 00:35:51;;;;;;;9.30;3.42;;;;;;;13.93;40.86;100161.25;4954649;29;20110;-58
2022/05/05 00:38:18;;;;;;;9.88;4.18;;;;;;;13.90;41.01;100161.44;4952946;29;20063;-60
2022/05/05 00:40:45;;;;;;;9.63;3.95;;;;;;;13.88;41.09;100158.06;4953072;28;20051;-58
2022/05/05 00:43:11;;;;;;;6.22;3.65;;;;;;;13.87;41.25;100158.16;4954235;29;20108;-57
2022/05/05 00:45:38;;;;;;;10.75;3.67;;;;;;;13.86;41.11;100162.59;4953968;29;20513;-59
2022/05/05 00:48:06;;;;;;;10.85;4.25;;;;;;;13.84;41.17;100167.16;4953942;29;20559;-58
2022/05/05 00:50:34;;;;;;;9.00;4.13;;;;;;;13.80;41.09;100163.81;4937282;29;20058;-56
2022/05/05 00:53:03;;;;;;;7.63;4.07;;;;;;;13.74;41.33;100166.00;4952559;29;20135;-57
2022/05/05 00:55:33;;;;;;;7.97;3.95;;;;;;;13.66;42.08;100172.66;4936917;29;20079;-60
2022/05/05 00:58:02;;;;;;;10.43;3.85;;;;;;;13.62;41.51;100171.16;4937031;29;20047;-58
2022/05/05 01:00:31;;;;;;;11.52;4.20;;;;;;;13.57;41.69;100172.38;4952433;29;20051;-59
2022/05/05 01:02:59;;;;;;;12.15;4.68;;;;;;;13.52;41.94;100167.38;4953768;29;20058;-59
2022/05/05 01:05:28;;;;;;;10.77;4.38;;;;;;;13.46;42.07;100170.38;4953745;29;20055;-59
2022/05/05 01:07:58;;;;;;;9.68;4.00;;;;;;;13.40;42.50;100161.91;4953574;29;20519;-58
2022/05/05 01:10:28;;;;;;;11.35;4.20;;;;;;;13.37;42.62;100170.00;4953458;29;20059;-57
2022/05/05 01:12:55;;;;;;;9.32;4.15;;;;;;;13.35;41.91;100171.88;4953603;29;20074;-60
2022/05/05 01:15:22;;;;;;;11.32;4.40;;;;;;;13.32;42.19;100173.88;4953771;29;20090;-56
2022/05/05 01:17:49;;;;;;;10.38;3.83;;;;;;;13.29;42.14;100169.63;4953521;29;20051;-59
2022/05/05 01:20:18;;;;;;;7.63;3.30;;;;;;;13.24;42.53;100166.44;4953311;29;20102;-59
2022/05/05 01:22:46;;;;;;;11.02;4.28;;;;;;;13.22;42.57;100171.81;4936452;29;20059;-54
2022/05/05 01:28:12;;;;;;;10.25;3.97;;;;;;;13.17;42.49;100163.31;4953334;29;20055;-59
2022/05/05 01:30:41;;;;;;;9.52;3.80;;;;;;;13.15;42.41;100171.34;4953033;29;20053;-59
2022/05/05 01:33:18;;;;;;;7.93;4.57;;;;;;;13.09;43.40;100171.69;4936239;29;20415;-57
2022/05/05 01:35:50;;;;;;;8.88;4.00;;;;;;;13.08;42.88;100175.28;4951826;29;20051;-59
2022/05/05 01:38:19;;;;;;;10.77;3.90;;;;;;;13.06;42.93;100177.19;4935945;29;20055;-57
2022/05/05 01:40:46;;;;;;;16.52;4.95;;;;;;;13.04;42.87;100176.41;4951673;29;20063;-59
2022/05/05 01:43:15;;;;;;;9.75;3.90;;;;;;;13.02;43.17;100183.59;4951936;29;20047;-60
2022/05/05 01:45:42;;;;;;;10.55;4.07;;;;;;;13.02;43.05;100175.69;4935788;29;20107;-60
2022/05/05 01:48:09;;;;;;;9.40;3.97;;;;;;;13.00;43.13;100177.53;4952940;29;20053;-59
2022/05/05 01:50:36;;;;;;;12.82;4.60;;;;;;;12.99;43.19;100181.13;4951640;29;20055;-60
2022/05/05 01:53:04;;;;;;;7.30;3.92;;;;;;;12.98;43.28;100179.44;4953097;28;20419;-59
2022/05/05 01:55:32;;;;;;;11.18;4.22;;;;;;;12.96;43.34;100183.97;4951479;29;20412;-61
2022/05/05 01:57:59;;;;;;;16.15;4.80;;;;;;;12.93;43.35;100181.53;4935915;29;20055;-58
2022/05/05 02:00:26;;;;;;;7.20;4.10;;;;;;;12.90;43.33;100188.69;4952364;29;20065;-60
2022/05/05 02:02:53;;;;;;;8.05;3.97;;;;;;;12.88;43.50;100189.72;4952611;29;20058;-60
2022/05/05 02:05:20;;;;;;;10.40;4.75;;;;;;;12.85;43.75;100188.09;4935716;29;20054;-56
2022/05/05 02:07:47;;;;;;;12.10;4.80;;;;;;;12.85;44.02;100187.25;4952983;29;20051;-54
2022/05/05 02:10:16;;;;;;;11.50;4.60;;;;;;;12.83;44.17;100192.66;4952625;29;20080;-57
2022/05/05 02:12:44;;;;;;;9.35;4.07;;;;;;;12.82;44.12;100193.56;4935503;29;20103;-53
2022/05/05 02:15:13;;;;;;;6.57;4.00;;;;;;;12.80;44.12;100184.91;4935462;29;20553;-60
2022/05/05 02:17:41;;;;;;;8.45;4.07;;;;;;;12.80;44.23;100199.88;4952876;29;20051;-58
2022/05/05 02:20:13;;;;;;;7.20;4.10;;;;;;;12.77;44.21;100195.63;4935448;29;20107;-57
2022/05/05 02:22:40;;;;;;;10.23;4.47;;;;;;;12.75;44.32;100200.19;4935315;29;20550;-60
2022/05/05 02:25:08;;;;;;;10.32;4.57;;;;;;;12.75;44.14;100202.81;4952586;29;20055;-59
2022/05/05 02:27:49;;;;;;;10.55;4.68;;;;;;;12.70;45.17;100200.44;4951215;29;20495;-59
2022/05/05 02:30:21;;;;;;;8.23;4.30;;;;;;;12.71;44.88;100196.00;4951512;29;20488;-59
2022/05/05 02:32:48;;;;;;;8.38;4.07;;;;;;;12.71;44.31;100194.19;4935265;29;20055;-58
2022/05/05 02:35:15;;;;;;;7.88;4.47;;;;;;;12.71;44.61;100185.44;4952527;29;20059;-58
2022/05/05 02:40:28;;;;;;;15.48;4.75;;;;;;;12.76;44.73;100200.06;4952014;29;20047;-58
2022/05/05 02:42:58;;;;;;;8.75;4.50;;;;;;;12.76;45.42;100199.22;4935161;29;20067;-59
2022/05/05 02:45:25;;;;;;;10.48;5.03;;;;;;;12.80;44.86;100194.59;4952167;29;20062;-60
2022/05/05 02:47:52;;;;;;;8.75;5.15;;;;;;;12.81;44.71;100191.00;4952252;29;20051;-56
2022/05/05 02:50:19;;;;;;;10.15;4.80;;;;;;;12.83;44.87;100195.28;4951972;29;20047;-59
2022/05/05 02:52:45;;;;;;;11.43;4.65;;;;;;;12.84;44.71;100196.97;4951831;29;20535;-59
2022/05/05 02:55:12;;;;;;;11.85;5.70;;;;;;;12.84;44.81;100198.75;4952395;29;20460;-59
2022/05/05 02:57:39;;;;;;;11.68;4.85;;;;;;;12.83;44.65;100195.28;4952164;29;20054;-56
2022/05/05 03:00:10;;;;;;;11.00;4.72;;;;;;;12.82;44.98;100195.38;4951839;29;20055;-59
2022/05/05 03:02:41;;;;;;;9.95;5.15;;;;;;;12.80;44.85;100194.59;4935194;28;20051;-55
2022/05/05 03:05:16;;;;;;;11.93;4.95;;;;;;;12.74;45.41;100190.53;4955775;29;20082;-60
2022/05/05 03:07:43;;;;;;;8.75;4.65;;;;;;;12.72;44.80;100189.78;4955022;29;20070;-61
2022/05/05 03:10:11;;;;;;;8.65;4.90;;;;;;;12.68;45.03;100193.53;4955684;29;20078;-54
2022/05/05 03:12:38;;;;;;;10.85;4.93;;;;;;;12.62;44.90;100192.97;4954500;29;20054;-57
2022/05/05 03:15:06;;;;;;;9.18;4.80;;;;;;;12.58;45.21;100194.09;4955829;29;20142;-59
2022/05/05 03:17:34;;;;;;;10.98;5.03;;;;;;;12.54;45.21;100187.28;4938798;29;20055;-59
2022/05/05 03:20:02;;;;;;;10.68;5.10;;;;;;;12.52;45.26;100186.50;4938454;29;20086;-59
2022/05/05 03:22:29;;;;;;;10.40;5.00;;;;;;;12.50;45.50;100189.25;4938643;29;20107;-55
2022/05/05 03:24:56;;;;;;;8.27;4.65;;;;;;;12.51;45.53;100200.66;4955603;29;20111;-55
2022/05/05 03:27:23;;;;;;;13.80;5.30;;;;;;;12.51;45.68;100190.94;4955641;29;20058;-57
2022/05/05 03:29:49;;;;;;;11.90;5.05;;;;;;;12.54;45.43;100189.91;4955158;29;20479;-57
2022/05/05 03:32:16;;;;;;;8.80;4.85;;;;;;;12.58;45.49;100193.22;4955348;29;20051;-56
2022/05/05 03:34:43;;;;;;;10.55;5.10;;;;;;;12.58;45.57;100202.00;4954351;29;20360;-59
2022/05/05 03:37:10;;;;;;;14.38;5.13;;;;;;;12.60;45.63;100194.84;4955245;29;20058;-58
2022/05/05 03:39:36;;;;;;;13.05;5.07;;;;;;;12.62;45.62;100203.53;4954938;29;20050;-57
2022/05/05 03:42:04;;;;;;;10.88;5.15;;;;;;;12.62;45.98;100200.88;4955225;29;20104;-62
2022/05/05 03:44:30;;;;;;;8.82;4.72;;;;;;;12.64;45.80;100212.19;4938056;29;20051;-56
2022/05/05 03:46:57;;;;;;;9.82;4.40;;;;;;;12.67;46.03;100210.34;4954991;29;20047;-53
2022/05/05 03:49:24;;;;;;;11.15;4.80;;;;;;;12.67;46.00;100207.69;4955048;29;20055;-58
2022/05/05 03:51:50;;;;;;;10.32;5.40;;;;;;;12.67;46.07;100207.69;4955041;29;20059;-55
2022/05/05 03:54:17;;;;;;;15.57;5.15;;;;;;;12.67;45.98;100213.81;4955051;29;20444;-53
2022/05/05 03:56:44;;;;;;;10.68;5.07;;;;;;;12.68;45.99;100220.81;4954906;29;20055;-61
2022/05/05 03:59:11;;;;;;;10.43;5.28;;;;;;;12.68;46.05;100223.47;4954477;29;20484;-60
2022/05/05 04:01:37;;;;;;;9.27;4.85;;;;;;;12.67;46.15;100227.00;4955007;29;20059;-59
2022/05/05 04:04:04;;;;;;;13.85;5.47;;;;;;;12.66;46.09;100220.03;4954729;29;20052;-60
2022/05/05 04:06:32;;;;;;;15.48;5.38;;;;;;;12.66;46.49;100224.47;4954727;29;20059;-60
2022/05/05 04:08:59;;;;;;;8.85;5.03;;;;;;;12.65;46.40;100228.91;4954704;29;20051;-61
2022/05/05 04:11:25;;;;;;;11.50;5.35;;;;;;;12.66;46.58;100232.38;4954534;29;20132;-60
2022/05/05 04:13:52;;;;;;;10.65;5.47;;;;;;;12.65;46.78;100231.56;4954750;29;20051;-59
2022/05/05 04:16:18;;;;;;;8.70;5.20;;;;;;;12.64;46.56;100233.31;4953282;28;20388;-60
2022/05/05 04:18:45;;;;;;;10.40;6.25;;;;;;;12.66;46.40;100235.03;4954394;29;20063;-59
2022/05/05 04:21:12;;;;;;;9.48;5.35;;;;;;;12.66;46.46;100235.03;4953945;29;20056;-62
2022/05/05 04:23:39;;;;;;;7.85;5.10;;;;;;;12.64;46.26;100238.59;4954518;29;20051;-59
2022/05/05 04:26:14;;;;;;;11.40;5.50;;;;;;;12.64;46.70;100240.41;4953444;29;20049;-60
2022/05/05 04:28:42;;;;;;;7.75;5.38;;;;;;;12.64;46.40;100240.41;4953094;29;20059;-62
2022/05/05 04:31:11;;;;;;;9.90;5.03;;;;;;;12.64;46.75;100253.63;4953928;29;20521;-60
2022/05/05 04:33:39;;;;;;;11.07;5.03;;;;;;;12.66;46.77;100254.38;4954498;29;20111;-59
2022/05/05 04:36:07;;;;;;;8.95;4.82;;;;;;;12.69;46.78;100250.69;4953061;29;20063;-62
2022/05/05 04:38:34;;;;;;;9.52;5.07;;;;;;;12.71;46.69;100251.47;4937212;29;20057;-60
2022/05/05 04:41:02;;;;;;;11.20;5.57;;;;;;;12.73;46.75;100253.09;4953793;29;20051;-61
2022/05/05 04:43:29;;;;;;;12.60;5.30;;;;;;;12.74;46.74;100252.13;4936808;29;20491;-61
2022/05/05 04:45:56;;;;;;;19.48;5.68;;;;;;;12.79;46.96;100258.94;4953759;29;20530;-59
2022/05/05 04:48:23;;;;;;;10.55;5.10;;;;;;;12.80;46.88;100256.22;4954321;29;20142;-60
2022/05/05 04:50:49;;;;;;;7.78;5.20;;;;;;;12.81;46.68;100255.28;4953779;29;20059;-60
2022/05/05 04:53:16;;;;;;;9.95;5.60;;;;;;;12.82;46.88;100262.25;4954081;29;20066;-60
2022/05/05 04:55:42;;;;;;;10.60;5.32;;;;;;;12.84;46.63;100262.16;4953820;29;20404;-60
2022/05/05 04:58:09;;;;;;;9.45;5.25;;;;;;;12.85;46.78;100261.22;4954198;29;20077;-61
2022/05/05 05:00:36;;;;;;;11.13;4.75;;;;;;;12.86;46.65;100258.50;4953859;29;20055;-62
2022/05/05 05:03:03;;;;;;;8.60;4.65;;;;;;;12.88;46.64;100271.63;4954549;29;20085;-60
2022/05/05 05:05:30;;;;;;;7.25;4.68;;;;;;;12.87;46.79;100268.09;4953867;29;20055;-60
2022/05/05 05:07:56;;;;;;;13.32;5.35;;;;;;;12.90;46.85;100277.69;4953169;29;20095;-60
2022/05/05 05:10:23;;;;;;;11.52;5.53;;;;;;;12.90;46.78;100278.50;4953023;29;20047;-60
2022/05/05 05:12:50;;;;;;;9.60;4.93;;;;;;;12.92;47.07;100283.72;4954030;29;20047;-60
2022/05/05 05:15:16;;;;;;;9.27;5.32;;;;;;;12.94;47.37;100286.25;4954061;29;20082;-61
2022/05/05 05:17:43;;;;;;;13.00;5.53;;;;;;;12.96;47.26;100285.22;4952385;29;20138;-62
2022/05/05 05:20:10;;;;;;;10.35;5.38;;;;;;;12.98;47.09;100288.63;4953589;29;20080;-60
2022/05/05 05:22:37;;;;;;;7.75;5.05;;;;;;;13.01;47.34;100292.91;4953532;29;20462;-60
2022/05/05 05:25:04;;;;;;;8.52;4.50;;;;;;;13.05;47.33;100290.91;4953413;29;20055;-61
2022/05/05 05:27:31;;;;;;;9.25;4.95;;;;;;;13.08;47.48;100288.94;4953109;28;20055;-59
2022/05/05 05:29:57;;;;;;;9.00;4.63;;;;;;;13.12;47.28;100287.81;4953191;29;20055;-59
2022/05/05 05:32:24;;;;;;;10.43;4.88;;;;;;;13.17;47.16;100292.84;4953216;29;20058;-61
2022/05/05 05:34:50;;;;;;;6.90;4.20;;;;;;;13.23;47.22;100296.91;4953305;29;20067;-59
2022/05/05 05:37:17;;;;;;;10.05;5.25;;;;;;;13.28;47.35;100294.84;4952978;29;20051;-60
2022/05/05 05:39:44;;;;;;;8.98;5.18;;;;;;;13.35;47.49;100300.63;4952976;29;20825;-60
2022/05/05 05:42:10;;;;;;;8.80;4.20;;;;;;;13.41;47.13;100297.59;4953092;29;20536;-62
2022/05/05 05:44:37;;;;;;;11.38;5.32;;;;;;;13.47;47.12;100299.88;4953100;29;20465;-60
2022/05/05 05:47:04;;;;;;;11.15;4.80;;;;;;;13.55;47.26;100302.94;4953063;29;20640;-59
2022/05/05 05:49:31;;;;;;;11.70;4.88;;;;;;;13.61;47.16;100301.69;4952936;29;20047;-60
2022/05/05 05:51:57;;;;;;;12.10;4.97;;;;;;;13.70;47.08;100296.78;4935710;29;20051;-60
2022/05/05 05:54:24;;;;;;;8.15;4.22;;;;;;;13.77;46.99;100306.91;4953059;29;20055;-60
2022/05/05 05:56:50;;;;;;;14.32;5.47;;;;;;;13.85;46.92;100305.56;4952779;29;20423;-62
2022/05/05 05:59:17;;;;;;;12.82;5.03;;;;;;;13.92;46.67;100304.25;4952657;29;20051;-61
2022/05/05 06:04:29;;;;;;;11.77;4.82;;;;;;;14.06;46.68;100304.22;4952821;29;20122;-60
2022/05/05 06:06:56;;;;;;;7.07;4.43;;;;;;;14.13;46.81;100310.00;4952889;29;20465;-62
2022/05/05 06:09:23;;;;;;;12.27;4.95;;;;;;;14.19;46.29;100317.56;4952505;29;20050;-61
2022/05/05 06:11:49;;;;;;;9.55;4.90;;;;;;;14.25;46.38;100312.81;4952408;29;20062;-60
2022/05/05 06:14:16;;;;;;;8.13;4.88;;;;;;;14.30;46.43;100316.88;4952922;29;20058;-60
2022/05/05 06:16:42;;;;;;;6.03;4.30;;;;;;;14.38;46.23;100321.69;4952713;29;20062;-60
2022/05/05 06:19:09;;;;;;;12.75;4.60;;;;;;;14.43;45.92;100316.09;4952555;29;20145;-60
2022/05/05 06:21:36;;;;;;;13.80;4.68;;;;;;;14.50;46.08;100321.84;4952448;29;20048;-61
2022/05/05 06:24:03;;;;;;;7.18;3.88;;;;;;;14.56;45.90;100324.94;4952517;29;20055;-61
2022/05/05 06:26:30;;;;;;;8.80;4.20;;;;;;;14.64;45.54;100331.53;4935563;29;20051;-60
2022/05/05 06:28:56;;;;;;;9.77;4.93;;;;;;;14.71;45.67;100328.41;4952489;29;20058;-61
2022/05/05 06:31:23;;;;;;;13.45;4.95;;;;;;;14.79;45.64;100327.06;4952238;29;20051;-61
2022/05/05 06:33:51;;;;;;;10.50;4.15;;;;;;;14.86;45.51;100331.00;4952337;29;20055;-61
2022/05/05 06:36:17;;;;;;;12.93;5.20;;;;;;;14.93;45.53;100332.31;4951152;29;20134;-61
2022/05/05 06:38:44;;;;;;;11.10;4.43;;;;;;;15.00;45.31;100329.25;4951892;29;20051;-60
2022/05/05 06:41:13;;;;;;;10.35;4.30;;;;;;;15.07;45.05;100330.53;4952507;29;20091;-61
2022/05/05 06:43:40;;;;;;;11.05;4.75;;;;;;;15.14;44.97;100329.16;4952268;29;20058;-60
2022/05/05 06:46:07;;;;;;;9.32;4.68;;;;;;;15.21;45.10;100337.56;4952303;29;20054;-60
2022/05/05 06:48:34;;;;;;;13.35;4.45;;;;;;;15.27;44.91;100334.50;4952441;29;20074;-61
2022/05/05 06:51:01;;;;;;;8.18;3.97;;;;;;;15.32;44.63;100335.03;4952184;29;20074;-60
2022/05/05 06:53:28;;;;;;;6.32;3.67;;;;;;;15.37;44.32;100340.03;4952155;29;20058;-60
2022/05/05 06:55:57;;;;;;;10.07;4.40;;;;;;;15.44;44.03;100340.47;4952445;29;20063;-60
2022/05/05 06:58:25;;;;;;;4.28;2.83;;;;;;;15.48;44.08;100342.78;4952111;29;20142;-62
2022/05/05 07:03:37;;;;;;;14.55;5.53;;;;;;;15.58;43.77;100350.13;4952461;29;20051;-60
2022/05/05 07:06:05;;;;;;;10.57;4.20;;;;;;;15.63;43.95;100350.69;4952279;29;20500;-62
2022/05/05 07:10:52;;;;;;;8.75;3.90;;;;;;;15.66;43.86;100350.44;4950902;29;20063;-60
2022/05/05 07:11:21;;;;;;;11.18;3.95;;;;;;;15.74;43.78;100348.09;4952205;29;20055;-61
2022/05/05 07:13:48;;;;;;;8.77;3.30;;;;;;;15.81;43.64;100351.19;4952452;29;20048;-61
2022/05/05 07:16:15;;;;;;;7.95;3.28;;;;;;;15.87;43.74;100349.91;4952253;29;20469;-61
2022/05/05 07:18:42;;;;;;;8.68;4.18;;;;;;;15.94;43.64;100353.88;4951881;29;20047;-63
2022/05/05 07:21:08;;;;;;;7.43;3.40;;;;;;;16.01;43.35;100356.94;4951761;29;20058;-60
2022/05/05 07:23:35;;;;;;;9.90;3.90;;;;;;;16.09;43.36;100359.91;4952167;29;20072;-61
2022/05/05 07:26:01;;;;;;;10.43;3.67;;;;;;;16.17;43.55;100358.50;4951190;29;20051;-60
2022/05/05 07:28:28;;;;;;;11.65;4.45;;;;;;;16.23;43.02;100366.88;4952194;29;20089;-62
2022/05/05 07:30:55;;;;;;;10.60;3.78;;;;;;;16.30;42.78;100362.00;4951890;29;20118;-60
2022/05/05 07:33:24;;;;;;;7.93;3.75;;;;;;;16.36;42.83;100373.97;4952100;29;20044;-60
2022/05/05 07:35:51;;;;;;;9.02;3.90;;;;;;;16.40;42.50;100371.00;4952129;29;20089;-63
2022/05/05 07:38:18;;;;;;;8.63;3.58;;;;;;;16.45;42.23;100369.81;4951860;29;20066;-61
2022/05/05 07:40:47;;;;;;;12.75;4.38;;;;;;;16.49;42.18;100369.47;4951594;29;20058;-61
2022/05/05 07:43:14;;;;;;;8.57;3.38;;;;;;;16.52;42.42;100371.91;4952109;29;20066;-60
2022/05/05 07:45:40;;;;;;;8.32;4.05;;;;;;;16.56;42.22;100374.38;4951887;29;20511;-59
2022/05/05 07:48:07;;;;;;;9.15;3.67;;;;;;;16.59;42.38;100374.97;4952084;29;20059;-61
2022/05/05 07:50:34;;;;;;;10.75;4.30;;;;;;;16.62;42.39;100374.75;4936988;29;20059;-60
2022/05/05 07:53:01;;;;;;;8.50;4.25;;;;;;;16.66;42.29;100370.06;4938706;29;20067;-60
2022/05/05 07:55:28;;;;;;;6.95;3.90;;;;;;;16.70;42.02;100371.53;4955560;29;20079;-61
2022/05/05 07:57:54;;;;;;;8.75;4.38;;;;;;;16.74;42.09;100375.66;4955433;29;20681;-61
2022/05/05 08:00:21;;;;;;;8.63;4.55;;;;;;;16.80;41.77;100369.06;4955228;29;20044;-60
2022/05/05 08:02:48;;;;;;;6.47;3.60;;;;;;;16.85;41.98;100376.72;4955082;29;20521;-60
2022/05/05 08:05:15;;;;;;;9.43;4.28;;;;;;;16.90;41.76;100380.69;4953847;29;20058;-59
2022/05/05 08:07:45;;;;;;;10.77;4.68;;;;;;;16.92;41.42;100376.13;4955406;29;20055;-61
2022/05/05 08:10:12;;;;;;;11.23;4.43;;;;;;;16.99;41.65;100386.31;4954908;29;20055;-60
2022/05/05 08:12:40;;;;;;;9.48;4.03;;;;;;;17.02;41.22;100383.44;4955071;29;20395;-61
2022/05/05 08:15:08;;;;;;;9.88;4.20;;;;;;;17.06;41.36;100388.44;4954985;29;20051;-60
2022/05/05 08:17:34;;;;;;;12.52;4.85;;;;;;;17.11;41.10;100385.44;4955036;29;20107;-61
2022/05/05 08:20:03;;;;;;;9.05;4.57;;;;;;;17.14;41.00;100387.88;4954556;29;20090;-62
2022/05/05 08:22:30;;;;;;;13.18;4.97;;;;;;;17.20;41.15;100378.59;4953476;29;20058;-60
2022/05/05 08:30:27;;;;;;;7.20;4.07;;;;;;;17.36;41.46;100391.56;4954738;29;20063;-60
2022/05/05 08:32:54;;;;;;;8.45;4.53;;;;;;;17.41;41.66;100388.53;4937465;29;20055;-61
2022/05/05 08:35:22;;;;;;;8.90;4.47;;;;;;;17.47;41.53;100396.09;4954666;29;20055;-61
2022/05/05 08:37:52;;;;;;;10.32;4.35;;;;;;;17.54;41.55;100391.97;4954601;29;20095;-60
2022/05/05 08:40:23;;;;;;;8.80;4.35;;;;;;;17.62;41.42;100394.06;4954296;29;20051;-60
2022/05/05 08:42:50;;;;;;;9.30;3.95;;;;;;;17.74;41.45;100391.41;4953316;29;20051;-63
2022/05/05 08:45:17;;;;;;;8.48;4.22;;;;;;;17.83;41.45;100396.88;4954545;29;20047;-60
2022/05/05 08:47:45;;;;;;;9.93;4.50;;;;;;;17.95;40.58;100402.22;4954552;29;20047;-60
2022/05/05 08:50:12;;;;;;;8.25;4.30;;;;;;;18.03;41.16;100401.59;4954011;29;20518;-61
2022/05/05 08:52:49;;;;;;;9.93;4.00;;;;;;;18.11;40.75;100401.88;4954385;29;20048;-60
2022/05/05 08:55:18;;;;;;;9.07;4.40;;;;;;;18.21;40.84;100405.50;4953999;29;20063;-62
2022/05/05 08:57:45;;;;;;;9.93;4.60;;;;;;;18.29;40.45;100406.72;4937275;29;20055;-61
2022/05/05 09:00:14;;;;;;;9.63;4.97;;;;;;;18.35;40.46;100412.41;4952253;29;20103;-62
2022/05/05 09:02:44;;;;;;;10.82;5.05;;;;;;;18.40;40.58;100409.41;4952152;28;20055;-61
2022/05/05 09:05:12;;;;;;;8.88;4.60;;;;;;;18.47;40.30;100423.09;4953853;29;20150;-60
2022/05/05 09:07:49;;;;;;;11.15;4.55;;;;;;;18.49;40.42;100421.13;4953740;29;20404;-61
2022/05/05 09:10:17;;;;;;;11.07;4.60;;;;;;;18.56;40.03;100409.00;4953388;29;20511;-60
2022/05/05 09:13:04;;;;;;;8.65;4.85;;;;;;;18.58;40.46;100417.72;4953858;29;20058;-60
2022/05/05 09:15:33;;;;;;;6.70;4.20;;;;;;;18.69;40.84;100408.84;4953599;29;20492;-62
2022/05/05 09:18:15;;;;;;;8.13;4.75;;;;;;;18.75;40.33;100418.19;4936751;29;20468;-62
2022/05/05 09:20:44;;;;;;;7.57;3.88;;;;;;;18.89;40.36;100414.41;4953639;29;20061;-62
2022/05/05 09:23:31;;;;;;;7.38;3.83;;;;;;;18.94;40.10;100419.34;4953649;29;20051;-63
2022/05/05 09:26:05;;;;;;;8.52;3.80;;;;;;;19.08;40.28;100423.56;4952345;29;20059;-61
2022/05/05 09:28:35;;;;;;;7.32;3.90;;;;;;;19.18;39.72;100421.00;4936319;29;20107;-60
2022/05/05 09:31:09;;;;;;;9.90;4.32;;;;;;;19.26;39.80;100422.03;4936208;29;20059;-62
2022/05/05 09:33:45;;;;;;;10.40;4.38;;;;;;;19.34;39.43;100421.41;4953260;29;20492;-60
2022/05/05 09:36:16;;;;;;;8.15;3.97;;;;;;;19.46;40.25;100416.88;4953373;29;20055;-61
2022/05/05 09:39:00;;;;;;;6.13;3.88;;;;;;;19.53;38.92;100425.19;4952041;29;20051;-63
2022/05/05 09:41:29;;;;;;;7.28;3.88;;;;;;;19.66;38.47;100425.00;4935970;29;20059;-60
2022/05/05 09:43:58;;;;;;;7.97;4.20;;;;;;;19.73;38.35;100414.66;4936321;29;20047;-59
2022/05/05 09:46:28;;;;;;;10.82;4.30;;;;;;;19.80;38.72;100421.16;4935936;29;20047;-59
2022/05/05 09:49:10;;;;;;;6.28;3.80;;;;;;;19.85;40.16;100423.44;4951821;29;20058;-60
2022/05/05 09:51:44;;;;;;;11.90;4.47;;;;;;;19.98;39.84;100424.09;4952797;29;20431;-61
2022/05/05 09:59:48;;;;;;;9.30;3.92;;;;;;;20.34;38.48;100425.53;4952558;29;20050;-60
2022/05/05 10:05:12;;;;;;;7.75;3.97;;;;;;;20.53;38.84;100425.56;4952905;29;20193;-60
2022/05/05 10:07:44;;;;;;;4.18;3.28;;;;;;;20.64;38.90;100429.16;4951525;29;20055;-60
2022/05/05 10:10:15;;;;;;;8.88;3.97;;;;;;;20.72;37.96;100421.28;4935510;29;20154;-60
2022/05/05 10:12:43;;;;;;;9.00;4.28;;;;;;;20.82;38.25;100423.97;4952229;28;20123;-60
2022/05/05 10:15:12;;;;;;;8.27;3.90;;;;;;;20.89;37.72;100433.16;4951486;29;20051;-60
2022/05/05 10:17:39;;;;;;;7.43;3.60;;;;;;;20.96;37.87;100430.78;4935618;29;20055;-62
2022/05/05 10:20:10;;;;;;;6.60;3.83;;;;;;;21.01;36.94;100433.03;4951189;29;20054;-61
2022/05/05 10:23:06;;;;;;;9.82;3.90;;;;;;;21.04;36.80;100422.06;4952375;29;20389;-61
2022/05/05 10:25:37;;;;;;;6.03;3.45;;;;;;;21.17;37.70;100427.13;4952491;29;20510;-60
2022/05/05 10:28:47;;;;;;;6.93;3.72;;;;;;;21.22;37.67;100423.06;4952562;29;20050;-60
2022/05/05 10:31:37;;;;;;;8.23;3.50;;;;;;;21.37;37.90;100417.25;4950990;29;20043;-60
2022/05/05 10:34:13;;;;;;;6.95;3.33;;;;;;;21.56;37.73;100428.94;4952431;29;20055;-60
2022/05/05 10:36:57;;;;;;;4.88;3.40;;;;;;;21.70;38.11;100422.28;4952346;29;20055;-60
2022/05/05 10:39:26;;;;;;;4.10;2.92;;;;;;;21.92;38.18;100425.66;4952197;29;20059;-60
2022/05/05 10:42:14;;;;;;;5.50;3.30;;;;;;;22.05;36.67;100417.31;4935347;29;20069;-62
2022/05/05 10:45:15;;;;;;;5.35;3.15;;;;;;;22.26;37.25;100423.28;4952468;29;20047;-60
2022/05/05 10:48:06;;;;;;;4.70;3.22;;;;;;;22.52;37.22;100424.44;4952158;29;20074;-61
2022/05/05 10:50:53;;;;;;;4.70;3.03;;;;;;;22.84;36.83;100430.34;4952326;29;20116;-61
2022/05/05 10:53:52;;;;;;;7.85;3.95;;;;;;;23.20;36.46;100419.59;4935378;29;20054;-61
2022/05/05 10:56:30;;;;;;;5.35;3.22;;;;;;;23.70;35.08;100420.03;4952221;29;20452;-61
2022/05/05 10:59:04;;;;;;;6.85;2.92;;;;;;;24.24;35.93;100412.78;4952142;29;20125;-63
2022/05/05 11:01:56;;;;;;;4.50;2.92;;;;;;;24.85;34.93;100420.75;4951740;29;20053;-61
2022/05/05 11:04:24;;;;;;;6.88;2.70;;;;;;;25.50;34.27;100415.56;4950870;29;20438;-62
2022/05/05 11:07:19;;;;;;;3.20;2.28;;;;;;;26.06;33.40;100419.38;4935163;29;20052;-61
2022/05/05 11:09:46;;;;;;;5.72;2.45;;;;;;;26.64;31.89;100416.44;4951939;29;20062;-62
2022/05/05 11:12:16;;;;;;;4.97;3.00;;;;;;;27.05;30.52;100413.50;4952125;29;20059;-61
2022/05/05 11:23:47;;;;;;;4.45;2.55;;;;;;;28.93;28.37;100424.50;4952173;28;20456;-61
2022/05/05 11:26:18;;;;;;;3.28;2.13;;;;;;;29.34;29.00;100416.75;4954486;29;20407;-62
2022/05/05 11:28:47;;;;;;;5.43;2.38;;;;;;;29.68;28.70;100415.16;4955896;29;20055;-61
2022/05/05 11:31:23;;;;;;;4.95;2.40;;;;;;;30.01;27.72;100410.97;4955494;29;20519;-62
2022/05/05 11:34:08;;;;;;;4.30;2.53;;;;;;;30.41;27.05;100415.75;4953893;29;20476;-62
2022/05/05 11:36:37;;;;;;;4.85;2.92;;;;;;;30.78;26.06;100410.91;4955549;29;20496;-61
2022/05/05 11:39:06;;;;;;;4.25;2.03;;;;;;;31.09;26.49;100414.06;4955457;29;20062;-61
2022/05/05 11:41:34;;;;;;;2.72;2.00;;;;;;;31.36;25.77;100413.28;4955341;29;20560;-60
2022/05/05 11:44:17;;;;;;;3.90;2.08;;;;;;;31.61;25.36;100415.34;4955152;29;20138;-61
2022/05/05 11:46:45;;;;;;;2.60;1.73;;;;;;;31.82;25.22;100422.41;4954392;29;20058;-61
2022/05/05 11:49:12;;;;;;;3.78;1.83;;;;;;;32.00;24.72;100416.34;4955168;29;20055;-61
2022/05/05 11:51:38;;;;;;;4.57;2.13;;;;;;;32.18;24.35;100425.72;4955547;29;20059;-62
2022/05/05 11:54:14;;;;;;;4.07;2.10;;;;;;;32.36;24.33;100409.50;4955078;29;20147;-62
2022/05/05 11:56:46;;;;;;;2.72;1.70;;;;;;;32.58;23.36;100417.38;4938056;29;20418;-62
2022/05/05 12:02:12;;;;;;;3.53;1.85;;;;;;;33.12;23.27;100419.75;4954967;29;20052;-60
2022/05/05 12:04:44;;;;;;;4.15;1.90;;;;;;;33.36;22.28;100427.34;4954929;29;20487;-61
2022/05/05 12:07:18;;;;;;;;;;;;;;;33.59;25.29;100420.47;4955351;29;20131;-62
2022/05/05 12:09:49;;;;;;;4.30;2.00;;;;;;;33.92;21.94;100411.06;4954767;29;20005;-61
2022/05/05 12:12:19;;;;;;;7.13;1.60;;;;;;;34.13;22.63;100412.56;4938041;29;20058;-63
2022/05/05 12:14:48;;;;;;;6.13;2.00;;;;;;;34.30;22.20;100407.28;4954354;29;20051;-61